Time;durP1;ratioP1;P1;durP2;ratioP2;P2;SDS_P1;SDS_P2;PMS_P1;PMS_P2;Temp;Humidity;BMP_temperature;BMP_pressure;BME280_temperature;BME280_humidity;BME280_pressure;Samples;Min_cycle;Max_cycle;Signal;HPM_P1;HPM_P2
2023/08/14 00:01:55;;;;;;;5.57;3.95;;;15.10;99.90;;;;;;5117132;28;20043;-63
2023/08/14 00:04:21;;;;;;;4.47;3.70;;;15.10;99.90;;;;;;5117165;28;20070;-63
2023/08/14 00:06:46;;;;;;;5.88;4.03;;;15.10;99.90;;;;;;5116731;28;20522;-63
2023/08/14 00:09:12;;;;;;;6.07;3.60;;;15.10;99.90;;;;;;5117039;28;20128;-63
2023/08/14 00:11:37;;;;;;;6.55;4.00;;;15.10;99.90;;;;;;5117028;28;20505;-63
2023/08/14 00:14:03;;;;;;;4.78;3.95;;;15.10;99.90;;;;;;5116896;28;20039;-63
2023/08/14 00:16:29;;;;;;;7.13;4.07;;;15.10;99.90;;;;;;5116965;28;20039;-63
2023/08/14 00:18:55;;;;;;;5.32;4.07;;;15.10;99.90;;;;;;5116598;28;20089;-63
2023/08/14 00:21:20;;;;;;;5.80;4.25;;;15.10;99.90;;;;;;5116839;28;20406;-63
2023/08/14 00:23:46;;;;;;;6.65;4.38;;;15.10;99.90;;;;;;5116823;28;20079;-63
2023/08/14 00:26:12;;;;;;;9.82;4.80;;;15.10;99.90;;;;;;5116696;28;20119;-63
2023/08/14 00:28:38;;;;;;;6.10;4.78;;;15.10;99.90;;;;;;5116396;28;20037;-62
2023/08/14 00:31:04;;;;;;;7.28;4.38;;;15.10;99.90;;;;;;5116623;28;20122;-63
2023/08/14 00:33:29;;;;;;;6.38;4.40;;;15.10;99.90;;;;;;5116618;28;20075;-63
2023/08/14 00:35:55;;;;;;;5.78;4.05;;;15.10;99.90;;;;;;5116486;28;20035;-63
2023/08/14 00:38:21;;;;;;;8.98;4.85;;;15.10;99.90;;;;;;5115192;28;20044;-63
2023/08/14 00:40:46;;;;;;;7.20;4.75;;;15.10;99.90;;;;;;5116441;28;20078;-63
2023/08/14 00:43:12;;;;;;;6.15;4.60;;;15.00;99.90;;;;;;5116439;28;20475;-63
2023/08/14 00:45:38;;;;;;;6.47;4.60;;;15.10;99.90;;;;;;5116466;28;20402;-63
2023/08/14 00:48:05;;;;;;;8.50;5.05;;;15.10;99.90;;;;;;5116330;28;20498;-63
2023/08/14 00:50:30;;;;;;;7.82;4.57;;;15.10;99.90;;;;;;5116301;28;20051;-63
2023/08/14 00:52:59;;;;;;;6.95;4.50;;;15.10;99.90;;;;;;5115910;28;20043;-63
2023/08/14 00:55:28;;;;;;;8.52;4.55;;;15.00;99.90;;;;;;5116012;28;20047;-63
2023/08/14 00:57:56;;;;;;;7.82;4.35;;;15.50;99.90;;;;;;5116131;28;20081;-63
2023/08/14 01:00:23;;;;;;;6.70;4.38;;;15.10;99.90;;;;;;5116095;28;20486;-62
2023/08/14 01:02:49;;;;;;;7.63;4.63;;;15.10;99.90;;;;;;5115727;28;20038;-63
2023/08/14 01:05:15;;;;;;;6.13;4.07;;;15.00;99.90;;;;;;5115966;28;20047;-63
2023/08/14 01:07:41;;;;;;;9.52;4.95;;;15.00;99.90;;;;;;5115986;28;20592;-63
2023/08/14 01:10:08;;;;;;;7.88;5.13;;;15.00;99.90;;;;;;5115670;28;20050;-63
2023/08/14 01:12:52;;;;;;;9.88;4.90;;;15.00;99.90;;;;;;5115204;28;20044;-63
2023/08/14 01:15:29;;;;;;;8.27;5.35;;;15.00;99.90;;;;;;5115841;28;20398;-67
2023/08/14 01:18:01;;;;;;;9.57;5.53;;;15.00;99.90;;;;;;5115734;28;20027;-65
2023/08/14 01:20:31;;;;;;;12.02;5.35;;;15.00;99.90;;;;;;5115756;28;20098;-65
2023/08/14 01:23:13;;;;;;;8.53;4.93;;;15.00;99.90;;;;;;5115698;28;20039;-66
2023/08/14 01:25:40;;;;;;;7.38;5.35;;;15.00;99.90;;;;;;5115760;28;20050;-63
2023/08/14 01:28:08;;;;;;;9.77;5.25;;;15.00;99.90;;;;;;5115837;28;20082;-63
2023/08/14 01:30:34;;;;;;;9.30;5.05;;;15.10;99.90;;;;;;5115247;28;20031;-63
2023/08/14 01:33:00;;;;;;;7.70;5.25;;;14.90;99.90;;;;;;5115159;28;20039;-63
2023/08/14 01:35:36;;;;;;;9.68;5.28;;;14.90;99.90;;;;;;5115091;28;20395;-66
2023/08/14 01:38:20;;;;;;;10.23;5.70;;;14.90;99.90;;;;;;5096766;28;20052;-64
2023/08/14 01:41:02;;;;;;;11.13;5.25;;;14.80;99.90;;;;;;5115356;28;20493;-63
2023/08/14 01:43:40;;;;;;;8.68;6.03;;;14.90;99.90;;;;;;5115285;28;20039;-63
2023/08/14 01:46:08;;;;;;;7.75;5.88;;;14.80;99.90;;;;;;5096874;28;20044;-63
2023/08/14 01:48:36;;;;;;;9.65;5.32;;;14.90;99.90;;;;;;5115170;28;20110;-63
2023/08/14 01:51:02;;;;;;;10.80;5.30;;;15.10;99.90;;;;;;5115070;28;20133;-63
2023/08/14 01:53:28;;;;;;;8.30;4.88;;;14.90;99.90;;;;;;5115110;28;20078;-63
2023/08/14 01:55:54;;;;;;;7.72;5.68;;;14.80;99.90;;;;;;5114925;28;20078;-63
2023/08/14 01:58:19;;;;;;;7.35;4.70;;;14.80;99.90;;;;;;5115027;28;20039;-63
2023/08/14 02:00:45;;;;;;;7.75;5.43;;;15.00;99.90;;;;;;5114607;28;20039;-63
2023/08/14 02:03:10;;;;;;;8.75;5.40;;;14.80;99.90;;;;;;5114951;28;20039;-62
2023/08/14 02:05:36;;;;;;;8.05;5.43;;;14.80;99.90;;;;;;5114723;28;20108;-63
2023/08/14 02:08:02;;;;;;;11.55;5.80;;;14.70;99.90;;;;;;5114730;28;20047;-63
2023/08/14 02:10:27;;;;;;;9.63;5.18;;;14.70;99.90;;;;;;5114721;28;20031;-62
2023/08/14 02:12:53;;;;;;;6.85;5.47;;;14.70;99.90;;;;;;5096405;28;20380;-63
2023/08/14 02:15:20;;;;;;;9.77;5.60;;;14.70;99.90;;;;;;5096380;28;20099;-63
2023/08/14 02:17:46;;;;;;;9.45;6.00;;;14.70;99.90;;;;;;5114610;28;20031;-63
2023/08/14 02:20:11;;;;;;;8.38;5.82;;;15.20;99.90;;;;;;5114519;28;20046;-63
2023/08/14 02:22:37;;;;;;;7.85;5.78;;;14.70;99.90;;;;;;5114407;28;20046;-63
2023/08/14 02:25:03;;;;;;;9.52;5.57;;;15.20;99.90;;;;;;5096324;28;20071;-63
2023/08/14 02:27:28;;;;;;;12.55;6.60;;;14.60;99.90;;;;;;5114498;28;20436;-69
2023/08/14 02:29:54;;;;;;;11.20;6.60;;;14.60;99.90;;;;;;5114318;28;20484;-65
2023/08/14 02:32:20;;;;;;;10.05;6.72;;;14.60;99.90;;;;;;5096154;28;20127;-65
2023/08/14 02:34:48;;;;;;;10.43;6.35;;;14.80;99.90;;;;;;5113981;28;20039;-65
2023/08/14 02:37:15;;;;;;;7.97;5.97;;;14.60;99.90;;;;;;5114362;28;20036;-62
2023/08/14 02:39:41;;;;;;;8.30;5.88;;;14.60;99.90;;;;;;5114244;28;20427;-62
2023/08/14 02:42:06;;;;;;;8.40;6.00;;;14.60;99.90;;;;;;5114143;28;20069;-63
2023/08/14 02:44:33;;;;;;;10.50;5.53;;;14.60;99.90;;;;;;5114081;28;20048;-63
2023/08/14 02:46:59;;;;;;;6.45;5.30;;;14.50;99.90;;;;;;5114042;28;20032;-63
2023/08/14 02:49:24;;;;;;;12.45;5.88;;;14.40;99.90;;;;;;5114033;28;20462;-63
2023/08/14 02:51:50;;;;;;;9.65;6.07;;;14.50;99.90;;;;;;5113726;28;20390;-63
2023/08/14 02:54:16;;;;;;;8.85;6.22;;;14.40;99.90;;;;;;5113686;28;20039;-63
2023/08/14 02:56:42;;;;;;;10.60;6.25;;;14.40;99.90;;;;;;5113495;28;20043;-63
2023/08/14 02:59:07;;;;;;;10.73;6.18;;;14.40;99.90;;;;;;5113572;28;20028;-63
2023/08/14 03:01:33;;;;;;;9.27;6.32;;;14.40;99.90;;;;;;5113854;28;20077;-63
2023/08/14 03:03:58;;;;;;;9.85;6.13;;;14.10;99.90;;;;;;5113809;28;20032;-63
2023/08/14 03:06:24;;;;;;;7.95;5.65;;;14.30;99.90;;;;;;5113517;28;20059;-63
2023/08/14 03:08:50;;;;;;;9.82;6.28;;;14.40;99.90;;;;;;5113722;28;20044;-63
2023/08/14 03:11:16;;;;;;;7.93;5.30;;;14.30;99.90;;;;;;5095409;28;20487;-65
2023/08/14 03:13:43;;;;;;;7.75;5.63;;;14.30;99.90;;;;;;5113345;28;20039;-63
2023/08/14 03:16:08;;;;;;;9.15;5.80;;;14.30;99.90;;;;;;5113606;28;20062;-63
2023/08/14 03:18:34;;;;;;;8.13;5.57;;;14.20;99.90;;;;;;5095451;28;20048;-62
2023/08/14 03:20:59;;;;;;;10.02;5.53;;;14.20;99.90;;;;;;5095168;28;20043;-62
2023/08/14 03:23:25;;;;;;;8.73;6.32;;;14.30;99.90;;;;;;5113228;28;20498;-63
2023/08/14 03:25:50;;;;;;;8.95;5.72;;;14.20;99.90;;;;;;5113521;28;20032;-63
2023/08/14 03:28:16;;;;;;;11.30;6.13;;;14.40;99.90;;;;;;5113449;28;20047;-63
2023/08/14 03:30:42;;;;;;;8.18;5.30;;;14.20;99.90;;;;;;5113505;28;20455;-63
2023/08/14 03:33:08;;;;;;;8.63;5.88;;;14.20;99.90;;;;;;5078129;28;20464;-63
2023/08/14 03:35:34;;;;;;;8.48;5.78;;;14.20;99.90;;;;;;5115736;28;20039;-63
2023/08/14 03:38:00;;;;;;;14.07;6.30;;;14.30;99.90;;;;;;5117794;28;20071;-65
2023/08/14 03:40:25;;;;;;;9.07;6.38;;;14.30;99.90;;;;;;5099016;28;20114;-65
2023/08/14 03:42:51;;;;;;;9.23;6.65;;;14.60;99.90;;;;;;5117588;28;20048;-65
2023/08/14 03:45:17;;;;;;;10.43;6.68;;;14.30;99.90;;;;;;5117610;28;20115;-65
2023/08/14 03:47:43;;;;;;;13.48;7.28;;;14.80;99.90;;;;;;5117621;28;20036;-65
2023/08/14 03:50:08;;;;;;;12.73;7.80;;;14.30;99.90;;;;;;5117446;28;20398;-65
2023/08/14 03:52:34;;;;;;;14.57;8.57;;;14.40;99.90;;;;;;5117430;28;20475;-65
2023/08/14 03:55:00;;;;;;;12.35;7.72;;;14.40;99.90;;;;;;5117328;28;20096;-65
2023/08/14 03:57:25;;;;;;;13.50;7.55;;;14.40;99.90;;;;;;5117113;28;20046;-65
2023/08/14 03:59:51;;;;;;;11.38;7.55;;;14.40;99.90;;;;;;5117252;28;20039;-65
2023/08/14 04:02:17;;;;;;;13.63;8.32;;;14.50;99.90;;;;;;5116970;28;20535;-65
2023/08/14 04:04:42;;;;;;;11.68;7.90;;;14.40;99.90;;;;;;5098949;28;20046;-65
2023/08/14 04:07:08;;;;;;;13.15;7.57;;;14.40;99.90;;;;;;5116782;28;20056;-65
2023/08/14 04:09:34;;;;;;;11.52;7.35;;;14.90;99.90;;;;;;5117113;28;20039;-65
2023/08/14 04:12:01;;;;;;;11.63;7.57;;;14.40;99.90;;;;;;5117102;28;20035;-65
2023/08/14 04:14:27;;;;;;;13.60;7.95;;;14.00;99.90;;;;;;5117073;28;20042;-65
2023/08/14 04:16:54;;;;;;;10.93;7.47;;;14.40;99.90;;;;;;5116579;28;20048;-65
2023/08/14 04:19:20;;;;;;;12.70;7.80;;;14.40;99.90;;;;;;5116961;28;20031;-65
2023/08/14 04:21:46;;;;;;;10.32;7.60;;;14.30;99.90;;;;;;5116880;28;20371;-65
2023/08/14 04:24:12;;;;;;;10.55;7.60;;;14.40;99.90;;;;;;5081662;28;20368;-65
2023/08/14 04:26:38;;;;;;;12.45;7.65;;;14.40;99.90;;;;;;5116830;28;20049;-65
2023/08/14 04:29:08;;;;;;;10.98;7.65;;;14.40;99.90;;;;;;5116388;28;20044;-65
2023/08/14 04:31:38;;;;;;;14.00;8.68;;;14.40;99.90;;;;;;5116770;28;20122;-65
2023/08/14 04:34:05;;;;;;;15.40;8.32;;;14.50;99.90;;;;;;5116349;28;20093;-65
2023/08/14 04:36:32;;;;;;;12.52;8.32;;;14.40;99.90;;;;;;5116206;28;20175;-65
2023/08/14 04:38:59;;;;;;;13.18;8.40;;;14.50;99.90;;;;;;5116567;28;20040;-65
2023/08/14 04:41:27;;;;;;;14.60;9.05;;;14.50;99.90;;;;;;5116553;28;20364;-65
2023/08/14 04:43:54;;;;;;;11.45;8.65;;;14.50;99.90;;;;;;5116074;28;20032;-65
2023/08/14 04:46:33;;;;;;;14.18;8.95;;;14.90;99.90;;;;;;5115005;28;20039;-65
2023/08/14 04:49:00;;;;;;;12.52;8.75;;;14.60;99.90;;;;;;5116499;28;20047;-65
2023/08/14 04:51:26;;;;;;;15.32;8.93;;;14.60;99.90;;;;;;5097754;28;20049;-65
2023/08/14 04:53:54;;;;;;;14.43;8.82;;;14.70;99.90;;;;;;5116230;28;20045;-64
2023/08/14 04:56:19;;;;;;;12.38;8.65;;;14.70;99.90;;;;;;5116119;28;20479;-65
2023/08/14 04:58:45;;;;;;;12.27;9.23;;;14.70;99.90;;;;;;5116290;28;20100;-65
2023/08/14 05:01:10;;;;;;;17.13;9.68;;;14.80;99.90;;;;;;5116202;28;20475;-65
2023/08/14 05:03:36;;;;;;;13.63;8.77;;;14.80;99.90;;;;;;5116129;28;20039;-65
2023/08/14 05:06:02;;;;;;;17.98;9.45;;;15.20;99.90;;;;;;5115767;28;20086;-65
2023/08/14 05:08:27;;;;;;;16.23;9.32;;;15.00;99.90;;;;;;5097667;28;20062;-65
2023/08/14 05:10:54;;;;;;;19.90;8.93;;;15.00;99.90;;;;;;5115920;28;20525;-65
2023/08/14 05:13:20;;;;;;;15.95;9.13;;;15.50;99.90;;;;;;5115914;28;20122;-65
2023/08/14 05:15:47;;;;;;;13.70;9.63;;;15.20;99.90;;;;;;5097299;28;20118;-65
2023/08/14 05:18:13;;;;;;;14.50;9.13;;;15.10;99.90;;;;;;5115769;28;20143;-65
2023/08/14 05:20:41;;;;;;;17.00;8.95;;;15.20;99.90;;;;;;5115559;28;20495;-65
2023/08/14 05:23:06;;;;;;;13.10;9.40;;;15.20;99.90;;;;;;5115650;28;20155;-65
2023/08/14 05:25:32;;;;;;;12.63;9.57;;;15.10;99.90;;;;;;5115630;28;20043;-65
2023/08/14 05:27:58;;;;;;;15.40;9.70;;;15.30;99.90;;;;;;5115648;28;20396;-65
2023/08/14 05:30:23;;;;;;;15.07;9.10;;;15.30;99.90;;;;;;5097075;28;20047;-68
2023/08/14 05:32:49;;;;;;;11.60;8.93;;;15.40;99.90;;;;;;5115451;28;20152;-65
2023/08/14 05:35:16;;;;;;;15.35;9.82;;;15.40;99.90;;;;;;5115086;28;20042;-65
2023/08/14 05:37:42;;;;;;;13.07;9.27;;;15.50;99.90;;;;;;5115342;28;20071;-65
2023/08/14 05:40:10;;;;;;;13.73;8.80;;;15.60;99.90;;;;;;5115316;28;20032;-65
2023/08/14 05:42:36;;;;;;;12.52;7.88;;;15.70;99.90;;;;;;5115309;28;20044;-65
2023/08/14 05:45:02;;;;;;;13.23;8.63;;;15.70;99.90;;;;;;5115242;28;20046;-65
2023/08/14 05:47:27;;;;;;;11.10;7.95;;;15.80;99.90;;;;;;5114985;28;20035;-65
2023/08/14 05:49:53;;;;;;;14.90;7.22;;;15.90;99.90;;;;;;5115071;28;20036;-65
2023/08/14 05:52:18;;;;;;;14.13;7.70;;;16.00;99.90;;;;;;5115085;28;20447;-65
2023/08/14 05:54:44;;;;;;;13.70;7.05;;;16.00;99.90;;;;;;5115033;28;20111;-65
2023/08/14 05:57:10;;;;;;;11.38;7.50;;;16.10;99.90;;;;;;5114760;28;20482;-65
2023/08/14 05:59:35;;;;;;;16.55;7.43;;;16.10;99.90;;;;;;5114692;28;20039;-63
2023/08/14 06:02:01;;;;;;;14.38;7.28;;;16.20;99.90;;;;;;5114909;28;20048;-63
2023/08/14 06:04:26;;;;;;;11.38;7.03;;;16.20;99.90;;;;;;5096425;28;20436;-63
2023/08/14 06:06:53;;;;;;;13.18;7.20;;;16.20;99.90;;;;;;5114404;28;20525;-63
2023/08/14 06:09:19;;;;;;;15.82;7.15;;;16.30;99.90;;;;;;5114420;28;20054;-63
2023/08/14 06:11:45;;;;;;;12.65;7.13;;;16.30;99.90;;;;;;5114716;28;20035;-63
2023/08/14 06:14:11;;;;;;;12.88;6.85;;;16.40;99.90;;;;;;5114727;28;20436;-63
2023/08/14 06:16:36;;;;;;;10.23;6.95;;;16.30;99.90;;;;;;5114676;28;20494;-62
2023/08/14 06:19:02;;;;;;;12.07;7.03;;;16.30;99.90;;;;;;5114421;28;20051;-62
2023/08/14 06:21:28;;;;;;;13.18;7.43;;;16.40;99.90;;;;;;5114674;28;20463;-63
2023/08/14 06:23:53;;;;;;;9.93;6.50;;;16.90;99.90;;;;;;5114511;28;20364;-62
2023/08/14 06:26:19;;;;;;;12.10;6.60;;;16.50;99.90;;;;;;5114580;28;20034;-66
2023/08/14 06:28:44;;;;;;;13.13;6.70;;;16.40;99.90;;;;;;5114465;28;20040;-62
2023/08/14 06:31:10;;;;;;;10.50;6.85;;;16.60;99.90;;;;;;5114454;28;20067;-62
2023/08/14 06:33:36;;;;;;;11.45;6.85;;;16.90;99.90;;;;;;5114412;28;20097;-62
2023/08/14 06:36:01;;;;;;;12.75;7.40;;;16.70;99.90;;;;;;5114267;28;20047;-62
2023/08/14 06:38:27;;;;;;;10.20;7.05;;;17.00;99.90;;;;;;5114272;28;20391;-62
2023/08/14 06:40:53;;;;;;;9.55;7.05;;;16.80;99.90;;;;;;5114201;28;20390;-62
2023/08/14 06:43:20;;;;;;;10.90;6.57;;;16.70;99.90;;;;;;5113980;28;20498;-63
2023/08/14 06:45:46;;;;;;;13.43;7.03;;;16.80;99.90;;;;;;5114191;28;20040;-62
2023/08/14 06:48:12;;;;;;;11.57;7.68;;;17.30;99.90;;;;;;5114059;28;20039;-65
2023/08/14 06:50:38;;;;;;;10.63;6.55;;;16.70;99.90;;;;;;5095863;28;20105;-63
2023/08/14 06:53:03;;;;;;;13.02;7.30;;;16.90;99.90;;;;;;5114046;28;20067;-63
2023/08/14 06:55:29;;;;;;;10.00;6.80;;;16.90;99.90;;;;;;5113917;28;20039;-63
2023/08/14 06:57:55;;;;;;;12.00;6.45;;;17.00;99.90;;;;;;5113978;28;20042;-66
2023/08/14 07:00:20;;;;;;;8.65;6.28;;;17.00;99.90;;;;;;5113910;28;20046;-62
2023/08/14 07:02:47;;;;;;;11.63;6.05;;;17.10;99.90;;;;;;5113878;28;20394;-63
2023/08/14 07:05:13;;;;;;;8.77;6.22;;;17.00;99.90;;;;;;5113900;28;20383;-63
2023/08/14 07:07:39;;;;;;;9.38;5.97;;;17.10;99.90;;;;;;5113586;28;20056;-64
2023/08/14 07:10:05;;;;;;;8.10;5.80;;;17.10;99.90;;;;;;5113017;28;20051;-65
2023/08/14 07:12:31;;;;;;;7.18;5.53;;;17.10;99.90;;;;;;5113660;28;20522;-65
2023/08/14 07:14:57;;;;;;;9.52;6.20;;;17.50;99.90;;;;;;5113642;28;20032;-65
2023/08/14 07:17:23;;;;;;;11.10;5.90;;;17.20;99.90;;;;;;5113667;28;20168;-65
2023/08/14 07:19:49;;;;;;;11.02;5.78;;;17.20;99.90;;;;;;5113419;28;20092;-63
2023/08/14 07:22:14;;;;;;;8.50;5.13;;;17.30;99.90;;;;;;5113656;28;20039;-63
2023/08/14 07:24:40;;;;;;;10.10;5.18;;;17.30;99.90;;;;;;5113601;28;20525;-63
2023/08/14 07:27:05;;;;;;;8.65;5.30;;;17.40;99.90;;;;;;5113546;28;20038;-62
2023/08/14 07:29:31;;;;;;;9.10;5.93;;;17.50;99.90;;;;;;5113336;28;20032;-65
2023/08/14 07:31:57;;;;;;;9.57;5.28;;;17.50;99.90;;;;;;5113173;28;20040;-65
2023/08/14 07:34:22;;;;;;;9.38;5.78;;;17.50;99.90;;;;;;5113504;28;20034;-65
2023/08/14 07:36:48;;;;;;;8.48;5.72;;;17.60;99.90;;;;;;5113332;28;20035;-66
2023/08/14 07:39:13;;;;;;;12.80;5.60;;;17.90;99.90;;;;;;5113125;28;20479;-66
2023/08/14 07:41:39;;;;;;;8.43;5.05;;;17.90;99.90;;;;;;5113505;28;20036;-65
2023/08/14 07:44:05;;;;;;;10.60;6.00;;;18.10;99.90;;;;;;5113187;28;20448;-65
2023/08/14 07:46:30;;;;;;;7.28;5.10;;;18.30;99.90;;;;;;5095079;28;20047;-65
2023/08/14 07:48:56;;;;;;;11.00;5.60;;;18.50;99.90;;;;;;5094833;28;20047;-65
2023/08/14 07:51:22;;;;;;;9.95;5.03;;;18.70;99.90;;;;;;5113283;28;20040;-65
2023/08/14 07:53:47;;;;;;;9.13;4.55;;;18.90;99.90;;;;;;5094758;28;20491;-65
2023/08/14 07:56:13;;;;;;;7.75;4.70;;;19.10;99.90;;;;;;5113180;28;20044;-65
2023/08/14 07:58:41;;;;;;;7.38;3.95;;;19.20;99.90;;;;;;5094757;28;20050;-65
2023/08/14 08:01:07;;;;;;;5.53;3.90;;;19.50;99.90;;;;;;5112986;28;20044;-65
2023/08/14 08:03:33;;;;;;;7.70;3.90;;;19.70;99.90;;;;;;5113209;28;20036;-65
2023/08/14 08:06:00;;;;;;;8.32;3.70;;;19.70;99.90;;;;;;5097188;28;20060;-65
2023/08/14 08:08:25;;;;;;;8.90;4.15;;;19.70;99.90;;;;;;5113175;28;20054;-65
2023/08/14 08:10:51;;;;;;;5.15;3.47;;;19.80;99.90;;;;;;5113088;28;20405;-65
2023/08/14 08:13:16;;;;;;;7.32;3.63;;;19.90;99.90;;;;;;5113102;28;20119;-65
2023/08/14 08:15:42;;;;;;;8.88;3.25;;;19.90;99.90;;;;;;5086618;28;20047;-65
2023/08/14 08:18:08;;;;;;;4.75;2.70;;;19.90;99.90;;;;;;5113035;28;20043;-66
2023/08/14 08:20:33;;;;;;;5.32;2.80;;;20.00;99.90;;;;;;5111932;28;20039;-63
2023/08/14 08:22:59;;;;;;;8.80;3.38;;;20.00;99.90;;;;;;5116464;28;20038;-63
2023/08/14 08:25:25;;;;;;;8.27;3.72;;;20.00;99.90;;;;;;5116816;28;20079;-63
2023/08/14 08:27:50;;;;;;;8.20;3.30;;;20.00;99.90;;;;;;5116722;28;20098;-63
2023/08/14 08:30:16;;;;;;;7.65;3.30;;;20.00;99.90;;;;;;5116829;28;20032;-63
2023/08/14 08:32:41;;;;;;;6.50;2.88;;;20.10;99.90;;;;;;5116696;28;20070;-64
2023/08/14 08:35:07;;;;;;;4.57;2.47;;;20.20;99.90;;;;;;5116532;28;20122;-63
2023/08/14 08:37:33;;;;;;;5.38;2.70;;;20.40;99.90;;;;;;5116604;28;20032;-63
2023/08/14 08:39:59;;;;;;;4.82;2.70;;;20.50;99.90;;;;;;5116335;28;20506;-63
2023/08/14 08:42:25;;;;;;;6.30;2.30;;;;;;;;;;5116577;28;20471;-63
2023/08/14 08:44:53;;;;;;;6.72;2.33;;;;;;;;;;5116442;28;20043;-63
2023/08/14 08:47:21;;;;;;;6.95;2.47;;;;;;;;;;5116385;28;20486;-63
2023/08/14 08:49:47;;;;;;;4.40;2.55;;;;;;;;;;5115020;28;20502;-63
2023/08/14 08:52:14;;;;;;;4.07;2.40;;;;;;;;;;5114981;28;20122;-63
2023/08/14 08:54:40;;;;;;;6.13;1.98;;;;;;;;;;5116016;28;20080;-63
2023/08/14 08:57:06;;;;;;;4.60;2.55;;;;;;;;;;5116145;28;20074;-63
2023/08/14 08:59:33;;;;;;;6.07;2.65;;;;;;;;;;5098162;28;20078;-63
2023/08/14 09:01:59;;;;;;;6.05;2.55;;;;;;;;;;5116167;28;20040;-63
2023/08/14 09:04:25;;;;;;;4.38;2.05;;;;;;;;;;5116087;28;20118;-63
2023/08/14 09:06:51;;;;;;;4.18;2.40;;;;;;;;;;5115588;28;20586;-64
2023/08/14 09:09:17;;;;;;;5.10;2.40;;;;;;;;;;5115975;28;20082;-63
2023/08/14 09:11:43;;;;;;;4.85;2.83;;;;;;;;;;5115995;28;20040;-66
2023/08/14 09:14:10;;;;;;;6.60;2.60;;;;;;;;;;5115876;28;20052;-65
2023/08/14 09:16:36;;;;;;;5.47;2.70;;;;;;;;;;5115790;28;20126;-65
2023/08/14 09:19:02;;;;;;;5.95;2.30;;;;;;;;;;5115886;28;20035;-65
2023/08/14 09:21:28;;;;;;;4.22;2.40;;;;;;;;;;5115492;28;20172;-63
2023/08/14 09:23:55;;;;;;;4.47;2.03;;;;;;;;;;5115698;28;20097;-63
2023/08/14 09:26:21;;;;;;;7.10;2.40;;;;;;;;;;5115691;28;20562;-63
2023/08/14 09:28:48;;;;;;;3.60;2.10;;;;;;;;;;5115681;28;20046;-63
2023/08/14 09:31:15;;;;;;;7.38;2.10;;;;;;;;;;5115454;28;20071;-66
2023/08/14 09:33:42;;;;;;;2.97;2.10;;;;;;;;;;5114384;28;20040;-66
2023/08/14 09:36:08;;;;;;;4.50;2.13;;;;;;;;;;5115107;28;20078;-65
2023/08/14 09:38:34;;;;;;;4.68;2.28;;;;;;;;;;5115500;28;20048;-66
2023/08/14 09:41:01;;;;;;;3.22;2.15;;;;;;;;;;5115490;28;20036;-66
2023/08/14 09:43:28;;;;;;;4.55;2.10;;;;;;;;;;5115413;28;20391;-65
2023/08/14 09:45:54;;;;;;;3.28;2.25;;;;;;;;;;5115289;28;20035;-66
2023/08/14 09:48:20;;;;;;;6.88;2.45;;;;;;;;;;5115239;28;20035;-66
2023/08/14 09:50:50;;;;;;;3.90;1.67;;;;;;;;;;5115218;28;20084;-67
2023/08/14 09:53:16;;;;;;;6.05;2.15;;;;;;;;;;5115174;28;20403;-66
2023/08/14 09:55:42;;;;;;;4.50;1.92;;;;;;;;;;5115091;28;20032;-65
2023/08/14 09:58:09;;;;;;;2.90;2.00;;;;;;;;;;5115103;28;20084;-66
2023/08/14 10:00:36;;;;;;;3.97;2.15;;;;;;;;;;5115052;28;20043;-65
2023/08/14 10:03:03;;;;;;;5.95;2.30;;;;;;;;;;5114907;28;20165;-66
2023/08/14 10:05:30;;;;;;;3.75;2.13;;;;;;;;;;5113234;28;20048;-65
2023/08/14 10:07:56;;;;;;;4.45;2.17;;;;;;;;;;5114510;28;20043;-66
2023/08/14 10:10:23;;;;;;;2.60;1.80;;;;;;;;;;5113451;28;20035;-66
2023/08/14 10:12:52;;;;;;;3.75;1.80;;;;;;;;;;5114798;28;20393;-66
2023/08/14 10:15:22;;;;;;;4.15;2.00;;;;;;;;;;5114716;28;20035;-66
2023/08/14 10:17:55;;;;;;;3.58;1.83;;;;;;;;;;5114643;28;20040;-66
2023/08/14 10:20:25;;;;;;;6.20;2.10;;;;;;;;;;5114341;28;20040;-66
2023/08/14 10:22:52;;;;;;;4.75;1.90;;;;;;;;;;5114579;28;20040;-66
2023/08/14 10:25:20;;;;;;;5.40;1.85;;;;;;;;;;5114619;28;20096;-66
2023/08/14 10:27:46;;;;;;;4.35;1.73;;;;;;;;;;5114508;28;20126;-66
2023/08/14 10:30:12;;;;;;;3.80;1.60;;;;;;;;;;5114421;28;20043;-66
2023/08/14 10:32:39;;;;;;;4.50;1.90;;;;;;;;;;5113134;28;20055;-66
2023/08/14 10:35:06;;;;;;;4.65;1.95;;;;;;;;;;5114341;28;20042;-66
2023/08/14 10:37:42;;;;;;;6.22;2.00;;;;;;;;;;5114334;28;20047;-65
2023/08/14 10:40:27;;;;;;;5.43;2.15;;;;;;;;;;5114251;28;20036;-66
2023/08/14 10:42:57;;;;;;;4.50;1.95;;;;;;;;;;5112713;28;20065;-64
2023/08/14 10:45:24;;;;;;;2.38;1.65;;;;;;;;;;5114195;28;20044;-64
2023/08/14 10:47:51;;;;;;;3.33;1.70;;;;;;;;;;5114142;28;20122;-64
2023/08/14 10:50:21;;;;;;;4.05;1.85;;;;;;;;;;5113801;28;20045;-64
2023/08/14 10:52:54;;;;;;;4.57;1.88;;;;;;;;;;5112904;28;20376;-64
2023/08/14 10:55:25;;;;;;;5.05;2.00;;;;;;;;;;5112440;28;20048;-64
2023/08/14 10:57:51;;;;;;;4.20;1.70;;;;;;;;;;5114031;28;20044;-64
2023/08/14 11:00:21;;;;;;;5.93;2.33;;;;;;;;;;5114006;28;20115;-69
2023/08/14 11:02:51;;;;;;;5.65;2.47;;;;;;;;;;5114233;28;20032;-63
2023/08/14 11:05:17;;;;;;;3.05;1.48;;;;;;;;;;5095231;28;20043;-64
2023/08/14 11:07:57;;;;;;;4.22;1.77;;;;;;;;;;5113564;28;20097;-64
2023/08/14 11:10:24;;;;;;;5.80;2.17;;;;;;;;;;5113497;28;20043;-64
2023/08/14 11:12:51;;;;;;;3.97;1.80;;;;;;;;;;5113708;28;20165;-64
2023/08/14 11:15:19;;;;;;;3.20;1.85;;;;;;;;;;5113683;28;20042;-64
2023/08/14 11:17:45;;;;;;;3.65;1.88;;;;;;;;;;5113761;28;20039;-64
2023/08/14 11:20:12;;;;;;;3.58;1.75;;;;;;;;;;5113648;28;20046;-64
2023/08/14 11:22:38;;;;;;;5.53;2.50;;;;;;;;;;5113702;28;20050;-65
2023/08/14 11:25:05;;;;;;;3.75;1.95;;;;;;;;;;5113628;28;20466;-64
2023/08/14 11:27:31;;;;;;;4.80;1.60;;;;;;;;;;5113566;28;20046;-64
2023/08/14 11:29:57;;;;;;;5.15;1.85;;;;;;;;;;5113580;28;20034;-63
2023/08/14 11:32:23;;;;;;;3.95;2.00;;;;;;;;;;5113507;28;20027;-64
2023/08/14 11:34:50;;;;;;;5.45;1.95;;;;;;;;;;5113510;28;20390;-64
2023/08/14 11:37:16;;;;;;;4.68;1.63;;;;;;;;;;5111575;28;20076;-64
2023/08/14 11:39:42;;;;;;;4.22;1.80;;;;;;;;;;5113515;28;20071;-64
2023/08/14 11:42:09;;;;;;;4.05;2.10;;;;;;;;;;5113493;28;20399;-64
2023/08/14 11:44:35;;;;;;;3.05;1.60;;;;;;;;;;5113480;28;20394;-64
2023/08/14 11:47:03;;;;;;;5.35;1.83;;;;;;;;;;5113390;28;20051;-64
2023/08/14 11:49:30;;;;;;;2.58;1.50;;;;;;;;;;5113061;28;20047;-64
2023/08/14 11:51:57;;;;;;;3.33;1.67;;;;;;;;;;5113610;28;20058;-66
2023/08/14 11:54:23;;;;;;;4.38;1.85;;;;;;;;;;5113425;28;20043;-66
2023/08/14 11:56:49;;;;;;;3.50;1.50;;;;;;;;;;5115596;28;20132;-66
2023/08/14 11:59:16;;;;;;;1.95;1.40;;;;;;;;;;5117422;28;20123;-66
2023/08/14 12:01:43;;;;;;;3.78;1.75;;;;;;;;;;5117440;28;20039;-66
2023/08/14 12:04:09;;;;;;;3.47;1.48;;;;;;;;;;5117640;28;20040;-66
2023/08/14 12:06:35;;;;;;;4.65;1.55;;;;;;;;;;5117003;28;20063;-66
2023/08/14 12:09:01;;;;;;;4.38;1.75;;;;;;;;;;5117219;28;20112;-66
2023/08/14 12:11:28;;;;;;;8.38;1.40;;;;;;;;;;5117245;28;20402;-66
2023/08/14 12:13:54;;;;;;;6.25;1.33;;;;;;;;;;5117146;28;20043;-66
2023/08/14 12:16:23;;;;;;;3.53;1.45;;;;;;;;;;5116988;28;20093;-66
2023/08/14 12:18:50;;;;;;;4.80;1.58;;;;;;;;;;5117005;28;20042;-66
2023/08/14 12:21:16;;;;;;;2.45;1.23;;;;;;;;;;5117008;28;20152;-66
2023/08/14 12:23:44;;;;;;;2.50;1.10;;;;;;;;;;5116741;28;20031;-66
2023/08/14 12:26:10;;;;;;;4.05;1.23;;;;;;;;;;5115336;28;20043;-65
2023/08/14 12:28:36;;;;;;;4.07;1.50;;;;;;;;;;5115296;28;20044;-66
2023/08/14 12:31:02;;;;;;;6.18;1.60;;;;;;;;;;5116803;28;20039;-66
2023/08/14 12:33:28;;;;;;;3.05;1.60;;;;;;;;;;5116724;28;20040;-66
2023/08/14 12:35:54;;;;;;;5.38;1.88;;;;;;;;;;5116667;28;20486;-66
2023/08/14 12:38:20;;;;;;;6.40;1.85;;;;;;;;;;5116724;28;20504;-66
2023/08/14 12:40:46;;;;;;;3.35;1.30;;;;;;;;;;5116298;28;20073;-66
2023/08/14 12:43:12;;;;;;;2.28;1.25;;;;;;;;;;5116379;28;20126;-66
2023/08/14 12:45:39;;;;;;;6.43;1.65;;;;;;;;;;5116265;28;20491;-66
2023/08/14 12:48:05;;;;;;;4.57;1.30;;;;;;;;;;5116254;28;20514;-66
2023/08/14 12:50:31;;;;;;;4.20;1.63;;;;;;;;;;5115151;28;20039;-66
2023/08/14 12:52:57;;;;;;;2.35;1.52;;;;;;;;;;5116073;28;20042;-66
2023/08/14 12:55:23;;;;;;;5.40;1.48;;;;;;;;;;5116278;28;20075;-66
2023/08/14 12:57:49;;;;;;;4.25;1.52;;;;;;;;;;5114988;28;20044;-66
2023/08/14 13:00:15;;;;;;;4.93;1.70;;;;;;;;;;5114645;28;20559;-66
2023/08/14 13:02:41;;;;;;;4.28;1.75;;;;;;;;;;5116378;28;20490;-64
2023/08/14 13:05:07;;;;;;;4.30;1.35;;;;;;;;;;5116134;28;20483;-64
2023/08/14 13:07:33;;;;;;;3.38;1.58;;;24.70;99.90;;;;;;5114444;28;20056;-64
2023/08/14 13:09:59;;;;;;;4.05;1.50;;;;;;;;;;5116083;28;20032;-64
2023/08/14 13:12:25;;;;;;;2.13;1.20;;;24.90;99.90;;;;;;5114696;28;20044;-64
2023/08/14 13:14:50;;;;;;;5.45;1.83;;;25.00;99.90;;;;;;5115924;28;20498;-64
2023/08/14 13:17:16;;;;;;;3.20;1.50;;;25.00;99.90;;;;;;5115851;28;20036;-64